SBKG/CPV METAR and TAF weather

Enter ICAO airport designator
Station Type Date Time Source
SBKG METAR 2019/06/19 07:00 UTC NOAA

SBKG 190700Z 15004KT CAVOK 20/19 Q1018


Station Type Date Time Source
SBKG Decoded METAR 2019/06/19 07:00 UTC NOAA

Campina Grande, Brazil (SBKG) 07-13S 035-53W
Jun 19, 2019 - 03:00 AM EDT / 2019.06.19 0700 UTC
Wind: from the SSE (150 degrees) at 5 MPH (4 KT):0
Visibility: greater than 7 mile(s):0
Temperature: 68 F (20 C)
Dew Point: 66 F (19 C)
Relative Humidity: 93%
Pressure (altimeter): 30.06 in. Hg (1018 hPa)
ob: SBKG 190700Z 15004KT CAVOK 20/19 Q1018
cycle: 7

Station Type Date Time Source
SBKG TAF 2019/06/19 06:33 UTC NOAA

TAF SBKG 190400Z 1906/1918 16005KT 8000 SCT010 TN21/1907Z TX29/1917Z PROB30 1910/1912 BKN011
BECMG 1913/1914 14015KT 9999 SCT020
RMK PFM

Example: see airport list